Time;durP1;ratioP1;P1;durP2;ratioP2;P2;SDS_P1;SDS_P2;PMS_P1;PMS_P2;Temp;Humidity;BMP_temperature;BMP_pressure;BME280_temperature;BME280_humidity;BME280_pressure;Samples;Min_cycle;Max_cycle;Signal;HPM_P1;HPM_P2
2024/03/20 00:02:20;;;;;;;1.50;1.07;;;12.10;98.20;;;;;;4900414;29;20476;-78
2024/03/20 00:04:47;;;;;;;1.47;1.00;;;12.10;98.20;;;;;;4901859;29;20473;-79
2024/03/20 00:07:15;;;;;;;1.50;1.00;;;12.10;98.20;;;;;;4901721;29;20500;-79
2024/03/20 00:09:42;;;;;;;1.47;1.00;;;12.10;98.20;;;;;;4902232;29;20493;-78
2024/03/20 00:12:09;;;;;;;1.50;1.00;;;12.10;98.20;;;;;;4902640;29;20489;-79
2024/03/20 00:14:36;;;;;;;1.50;1.10;;;12.00;98.20;;;;;;4901582;29;20473;-78
2024/03/20 00:17:03;;;;;;;1.50;1.00;;;12.00;98.20;;;;;;4893042;29;20480;-79
2024/03/20 00:19:30;;;;;;;1.50;1.00;;;12.00;98.20;;;;;;4899730;29;20560;-79
2024/03/20 00:21:57;;;;;;;1.50;1.20;;;12.00;98.20;;;;;;4904704;29;20472;-81
2024/03/20 00:24:25;;;;;;;1.50;1.10;;;12.00;98.20;;;;;;4900387;29;20853;-79
2024/03/20 00:26:52;;;;;;;1.43;1.00;;;12.00;98.20;;;;;;4901452;29;20488;-79
2024/03/20 00:29:19;;;;;;;1.50;1.00;;;12.00;98.20;;;;;;4900672;29;21134;-79
2024/03/20 00:31:45;;;;;;;1.50;1.00;;;11.90;98.20;;;;;;4899312;29;20499;-79
2024/03/20 00:34:13;;;;;;;1.47;1.00;;;11.90;98.20;;;;;;4894158;29;20980;-79
2024/03/20 00:36:40;;;;;;;1.50;1.10;;;11.90;98.20;;;;;;4899527;29;20478;-78
2024/03/20 00:39:08;;;;;;;1.50;1.10;;;11.80;98.20;;;;;;4899906;29;20515;-78
2024/03/20 00:41:38;;;;;;;1.50;1.10;;;11.80;98.20;;;;;;4898408;29;20465;-78
2024/03/20 00:44:05;;;;;;;1.50;1.10;;;11.70;98.20;;;;;;4899088;29;20469;-78
2024/03/20 00:46:32;;;;;;;1.50;1.10;;;11.70;98.20;;;;;;4899213;29;20961;-78
2024/03/20 00:48:59;;;;;;;1.50;1.20;;;11.70;98.20;;;;;;4899920;29;20499;-81
2024/03/20 00:51:26;;;;;;;1.50;1.10;;;11.60;98.20;;;;;;4901419;29;20545;-80
2024/03/20 00:53:55;;;;;;;1.50;1.10;;;11.60;98.20;;;;;;4901865;29;20965;-83
2024/03/20 00:56:22;;;;;;;1.50;1.10;;;11.60;98.20;;;;;;4901690;29;20484;-82
2024/03/20 00:58:50;;;;;;;1.50;1.00;;;11.50;98.20;;;;;;4902236;29;20485;-79
2024/03/20 01:01:17;;;;;;;1.50;1.10;;;11.50;98.20;;;;;;4902009;29;20466;-79
2024/03/20 01:03:45;;;;;;;1.50;1.00;;;11.50;98.20;;;;;;4900357;29;20468;-83
2024/03/20 01:06:12;;;;;;;1.50;1.17;;;11.40;98.20;;;;;;4902918;29;20469;-81
2024/03/20 01:08:40;;;;;;;1.50;1.10;;;11.40;98.20;;;;;;4904943;29;20499;-81
2024/03/20 01:11:09;;;;;;;1.50;1.00;;;11.30;98.20;;;;;;4902329;29;20508;-82
2024/03/20 01:13:36;;;;;;;1.50;1.20;;;11.30;98.20;;;;;;4900525;29;20500;-83
2024/03/20 01:16:05;;;;;;;1.50;1.00;;;11.20;98.20;;;;;;4902599;29;20757;-81
2024/03/20 01:18:32;;;;;;;1.50;1.10;;;11.20;98.20;;;;;;4902280;29;20500;-82
2024/03/20 01:20:59;;;;;;;1.50;1.00;;;11.20;98.20;;;;;;4901870;29;20771;-81
2024/03/20 01:23:25;;;;;;;1.50;1.10;;;11.10;98.20;;;;;;4900209;29;20473;-82
2024/03/20 01:25:52;;;;;;;1.50;1.10;;;11.10;98.20;;;;;;4901421;29;20896;-82
2024/03/20 01:28:20;;;;;;;1.50;1.10;;;11.10;98.20;;;;;;4900720;29;21076;-82
2024/03/20 01:30:47;;;;;;;1.50;1.10;;;11.10;98.20;;;;;;4902088;29;20525;-82
2024/03/20 01:33:17;;;;;;;1.50;1.00;;;11.10;98.20;;;;;;4900941;29;20484;-81
2024/03/20 01:35:46;;;;;;;1.50;1.00;;;11.10;98.20;;;;;;4902566;29;20473;-82
2024/03/20 01:38:13;;;;;;;1.50;1.00;;;11.10;98.20;;;;;;4902060;29;20489;-82
2024/03/20 01:40:40;;;;;;;1.50;1.10;;;11.10;98.20;;;;;;4901244;29;20475;-80
2024/03/20 01:43:18;;;;;;;1.50;1.00;;;11.00;98.20;;;;;;4900364;29;20552;-80
2024/03/20 01:45:46;;;;;;;1.50;1.13;;;11.00;98.20;;;;;;4901763;29;20470;-80
2024/03/20 01:48:14;;;;;;;1.50;1.10;;;11.00;98.20;;;;;;4901581;29;20499;-82
2024/03/20 01:50:41;;;;;;;1.50;1.10;;;10.90;98.20;;;;;;4901108;29;20496;-82
2024/03/20 01:53:08;;;;;;;1.50;1.10;;;10.90;98.20;;;;;;4899989;29;20469;-81
2024/03/20 01:55:36;;;;;;;1.50;1.20;;;10.90;98.20;;;;;;4900465;29;20473;-81
2024/03/20 01:58:03;;;;;;;1.50;1.00;;;10.80;98.20;;;;;;4904796;29;20488;-81
2024/03/20 02:00:33;;;;;;;1.50;1.10;;;10.80;98.20;;;;;;4900079;29;20509;-80
2024/03/20 02:03:02;;;;;;;1.50;1.10;;;10.80;98.20;;;;;;4900464;29;20468;-82
2024/03/20 02:05:30;;;;;;;1.50;1.10;;;10.90;98.20;;;;;;4900346;29;20628;-83
2024/03/20 02:07:57;;;;;;;1.50;1.20;;;10.90;98.20;;;;;;4900601;29;20905;-83
2024/03/20 02:10:25;;;;;;;1.50;1.10;;;10.80;98.20;;;;;;4899809;29;20505;-81
2024/03/20 02:13:02;;;;;;;1.50;1.00;;;10.80;98.20;;;;;;4900178;29;20480;-82
2024/03/20 02:15:29;;;;;;;1.50;1.00;;;10.80;98.20;;;;;;4902610;29;20900;-80
2024/03/20 02:17:57;;;;;;;1.50;1.10;;;10.80;98.20;;;;;;4892909;29;20561;-81
2024/03/20 02:20:24;;;;;;;1.50;1.20;;;10.80;98.20;;;;;;4900149;29;20469;-80
2024/03/20 02:22:52;;;;;;;1.50;1.00;;;10.80;98.20;;;;;;4900210;29;20477;-81
2024/03/20 02:25:21;;;;;;;1.50;1.20;;;10.80;98.20;;;;;;4900734;29;20515;-80
2024/03/20 02:27:48;;;;;;;1.50;1.10;;;10.70;98.20;;;;;;4898606;29;21091;-82
2024/03/20 02:30:15;;;;;;;1.50;1.10;;;10.70;98.20;;;;;;4899611;29;20948;-81
2024/03/20 02:32:42;;;;;;;1.50;1.10;;;10.70;98.20;;;;;;4899111;29;20477;-81
2024/03/20 02:35:09;;;;;;;1.50;1.10;;;10.70;98.20;;;;;;4899008;29;20546;-78
2024/03/20 02:37:36;;;;;;;1.50;1.10;;;10.60;98.20;;;;;;4896828;29;20486;-78
2024/03/20 02:40:06;;;;;;;1.50;1.20;;;10.60;98.20;;;;;;4898955;29;20490;-78
2024/03/20 02:42:33;;;;;;;1.50;1.10;;;10.60;98.20;;;;;;4895056;29;20872;-79
2024/03/20 02:44:59;;;;;;;1.50;1.20;;;10.60;98.20;;;;;;4896508;29;20470;-78
2024/03/20 02:47:26;;;;;;;1.50;1.10;;;10.60;98.20;;;;;;4896206;29;22473;-78
2024/03/20 02:49:53;;;;;;;1.50;1.20;;;10.60;98.20;;;;;;4897127;29;20480;-78
2024/03/20 02:52:20;;;;;;;1.50;1.10;;;10.60;98.20;;;;;;4896077;29;20504;-78
2024/03/20 02:54:47;;;;;;;1.50;1.10;;;10.60;98.20;;;;;;4896889;29;20792;-78
2024/03/20 02:57:15;;;;;;;1.50;1.20;;;10.60;98.20;;;;;;4896316;29;20473;-79
2024/03/20 02:59:42;;;;;;;1.50;1.03;;;10.60;98.20;;;;;;4896746;29;20560;-78
2024/03/20 03:02:09;;;;;;;1.50;1.10;;;10.50;98.20;;;;;;4897367;29;20473;-78
2024/03/20 03:04:36;;;;;;;1.50;1.10;;;10.50;98.20;;;;;;4894947;29;20478;-78
2024/03/20 03:07:03;;;;;;;1.50;1.10;;;10.50;98.20;;;;;;4895967;29;20469;-78
2024/03/20 03:09:30;;;;;;;1.50;1.10;;;10.50;98.20;;;;;;4894140;29;20961;-78
2024/03/20 03:11:57;;;;;;;1.50;1.10;;;10.50;98.20;;;;;;4895819;29;20773;-78
2024/03/20 03:14:25;;;;;;;1.50;1.00;;;10.50;98.20;;;;;;4897986;29;20474;-78
2024/03/20 03:16:55;;;;;;;1.50;1.10;;;10.50;98.20;;;;;;4896565;29;20847;-78
2024/03/20 03:19:22;;;;;;;1.50;1.10;;;10.50;98.20;;;;;;4898848;29;20544;-79
2024/03/20 03:21:49;;;;;;;1.50;1.00;;;10.50;98.20;;;;;;4898595;29;20605;-80
2024/03/20 03:24:16;;;;;;;1.50;1.10;;;10.40;98.20;;;;;;4896449;29;20791;-78
2024/03/20 03:26:42;;;;;;;1.50;1.10;;;10.40;98.20;;;;;;4898192;29;20565;-79
2024/03/20 03:29:09;;;;;;;1.50;1.03;;;10.40;98.20;;;;;;4900166;29;20489;-80
2024/03/20 03:31:37;;;;;;;1.50;1.07;;;10.40;98.20;;;;;;4898390;29;20624;-79
2024/03/20 03:34:04;;;;;;;1.50;1.10;;;10.30;98.20;;;;;;4901939;29;20931;-78
2024/03/20 03:36:32;;;;;;;1.50;1.10;;;10.30;98.20;;;;;;4899937;29;20474;-80
2024/03/20 03:38:59;;;;;;;1.50;1.20;;;10.30;98.20;;;;;;4899479;29;20489;-78
2024/03/20 03:41:26;;;;;;;1.50;1.10;;;10.20;98.20;;;;;;4900722;29;20468;-78
2024/03/20 03:43:53;;;;;;;1.50;1.10;;;10.20;98.20;;;;;;4899869;29;20477;-77
2024/03/20 03:46:20;;;;;;;1.50;1.10;;;10.20;98.20;;;;;;4899882;29;20470;-79
2024/03/20 03:48:49;;;;;;;1.50;1.10;;;10.10;98.20;;;;;;4902392;29;20489;-79
2024/03/20 03:51:16;;;;;;;1.50;1.00;;;10.10;98.20;;;;;;4903567;29;20777;-79
2024/03/20 03:53:43;;;;;;;1.50;1.10;;;10.10;98.20;;;;;;4902809;29;20473;-79
2024/03/20 03:56:09;;;;;;;1.50;1.10;;;10.10;98.20;;;;;;4903025;29;20843;-80
2024/03/20 03:58:36;;;;;;;1.50;1.10;;;10.00;98.20;;;;;;4903244;29;21220;-80
2024/03/20 04:01:03;;;;;;;1.50;1.10;;;10.00;98.20;;;;;;4902776;29;20461;-79
2024/03/20 04:03:30;;;;;;;1.50;1.10;;;10.00;98.20;;;;;;4901421;29;20469;-80
2024/03/20 04:05:59;;;;;;;1.50;1.17;;;10.00;98.20;;;;;;4901659;29;20481;-80
2024/03/20 04:08:26;;;;;;;1.50;1.10;;;9.90;98.20;;;;;;4901315;29;20676;-80
2024/03/20 04:13:22;;;;;;;1.50;1.10;;;9.90;98.20;;;;;;4898973;29;20493;-79
2024/03/20 04:15:52;;;;;;;1.50;1.10;;;10.00;98.20;;;;;;4900577;29;20465;-80
2024/03/20 04:18:19;;;;;;;1.50;1.10;;;10.00;98.20;;;;;;4897619;29;20534;-80
2024/03/20 04:20:46;;;;;;;1.50;1.10;;;10.00;98.20;;;;;;4898908;29;20856;-80
2024/03/20 04:23:14;;;;;;;1.50;1.10;;;10.10;98.20;;;;;;4882622;29;20475;-79
2024/03/20 04:25:42;;;;;;;1.50;1.10;;;10.10;98.20;;;;;;4883989;29;20566;-80
2024/03/20 04:28:10;;;;;;;1.50;1.10;;;10.10;98.20;;;;;;4883092;29;20472;-80
2024/03/20 04:30:39;;;;;;;1.50;1.20;;;10.20;98.20;;;;;;4882602;29;20477;-80
2024/03/20 04:33:07;;;;;;;1.50;1.20;;;10.20;98.20;;;;;;4876358;29;20527;-79
2024/03/20 04:35:34;;;;;;;1.50;1.20;;;10.20;98.20;;;;;;4881021;29;20487;-79
2024/03/20 04:38:01;;;;;;;1.50;1.10;;;10.30;98.20;;;;;;4881772;29;20474;-77
2024/03/20 04:40:29;;;;;;;1.60;1.40;;;10.30;98.20;;;;;;4881042;29;20478;-79
2024/03/20 04:42:56;;;;;;;1.50;1.00;;;10.30;98.20;;;;;;4881630;29;20517;-80
2024/03/20 04:45:23;;;;;;;1.50;1.10;;;10.30;98.20;;;;;;4879816;29;20477;-80
2024/03/20 04:47:50;;;;;;;1.50;1.10;;;10.30;98.20;;;;;;4881404;29;20478;-79
2024/03/20 04:50:16;;;;;;;1.50;1.10;;;10.30;98.20;;;;;;4882174;29;20469;-79
2024/03/20 04:52:43;;;;;;;1.50;1.10;;;10.30;98.20;;;;;;4881086;29;20500;-80
2024/03/20 04:55:10;;;;;;;1.50;1.10;;;10.30;98.20;;;;;;4882501;29;20614;-80
2024/03/20 04:57:38;;;;;;;1.50;1.10;;;10.30;98.20;;;;;;4875892;29;20479;-80
2024/03/20 05:00:11;;;;;;;1.50;1.10;;;10.30;98.20;;;;;;4886416;29;20912;-80
2024/03/20 05:02:39;;;;;;;1.50;1.10;;;10.30;98.20;;;;;;4881520;29;20482;-79
2024/03/20 05:05:05;;;;;;;1.50;1.20;;;10.30;98.20;;;;;;4881638;29;20466;-79
2024/03/20 05:07:32;;;;;;;1.50;1.10;;;10.30;98.20;;;;;;4881233;29;20474;-79
2024/03/20 05:09:59;;;;;;;1.50;1.00;;;10.30;98.20;;;;;;4881104;29;20472;-79
2024/03/20 05:12:26;;;;;;;1.50;1.10;;;10.30;98.20;;;;;;4879557;29;21029;-79
2024/03/20 05:14:54;;;;;;;1.50;1.10;;;10.30;98.20;;;;;;4879282;29;20614;-78
2024/03/20 05:17:21;;;;;;;1.50;1.20;;;10.30;98.20;;;;;;4880289;29;20478;-79
2024/03/20 05:19:48;;;;;;;1.50;1.10;;;10.30;98.20;;;;;;4880175;29;20471;-79
2024/03/20 05:22:14;;;;;;;1.50;1.10;;;10.30;98.20;;;;;;4881298;29;20487;-80
2024/03/20 05:24:41;;;;;;;1.80;1.70;;;10.30;98.20;;;;;;4878170;29;21047;-80
2024/03/20 05:27:07;;;;;;;1.50;1.10;;;10.30;98.20;;;;;;4882080;29;20218;-79
2024/03/20 05:29:34;;;;;;;1.50;1.10;;;10.30;98.20;;;;;;4883057;29;20482;-78
2024/03/20 05:32:01;;;;;;;1.50;1.10;;;10.30;98.20;;;;;;4880168;29;20506;-78
2024/03/20 05:34:28;;;;;;;1.50;1.10;;;10.20;98.20;;;;;;4878862;29;20486;-78
2024/03/20 05:36:54;;;;;;;1.50;1.10;;;10.20;98.20;;;;;;4881788;29;21004;-79
2024/03/20 05:39:23;;;;;;;1.50;1.10;;;10.20;98.20;;;;;;4882235;29;20534;-79
2024/03/20 05:41:49;;;;;;;1.50;1.10;;;10.10;98.20;;;;;;4880147;29;20237;-79
2024/03/20 05:44:17;;;;;;;1.50;1.10;;;10.20;98.20;;;;;;4881711;29;20475;-79
2024/03/20 05:46:43;;;;;;;1.50;1.10;;;10.10;98.20;;;;;;4882979;29;20210;-79
2024/03/20 05:49:11;;;;;;;1.50;1.10;;;10.10;98.20;;;;;;4883905;29;21060;-78
2024/03/20 05:51:37;;;;;;;1.50;1.10;;;10.10;98.20;;;;;;4880044;29;20493;-78
2024/03/20 05:54:04;;;;;;;1.50;1.10;;;10.10;98.20;;;;;;4879252;29;20481;-80
2024/03/20 05:56:30;;;;;;;1.50;1.10;;;10.10;98.20;;;;;;4882492;29;20456;-79
2024/03/20 05:58:56;;;;;;;1.50;1.10;;;10.10;98.20;;;;;;4883868;29;20475;-79
2024/03/20 06:01:23;;;;;;;4.77;1.70;;;10.10;98.20;;;;;;4881968;29;20232;-80
2024/03/20 06:03:49;;;;;;;1.50;1.10;;;10.10;98.20;;;;;;4882512;29;20474;-80
2024/03/20 06:06:17;;;;;;;1.50;1.00;;;10.10;98.20;;;;;;4881276;29;20466;-79
2024/03/20 06:08:43;;;;;;;1.50;1.10;;;10.10;98.20;;;;;;4882136;29;20509;-79
2024/03/20 06:11:09;;;;;;;1.50;1.07;;;10.10;98.20;;;;;;4878660;29;20490;-78
2024/03/20 06:13:36;;;;;;;1.50;1.17;;;10.20;98.20;;;;;;4879065;29;20480;-78
2024/03/20 06:16:02;;;;;;;1.50;1.10;;;10.20;98.20;;;;;;4879746;29;20661;-77
2024/03/20 06:18:29;;;;;;;1.50;1.10;;;10.20;98.20;;;;;;4878304;29;20470;-78
2024/03/20 06:20:55;;;;;;;1.50;1.10;;;10.30;98.20;;;;;;4879397;29;20870;-79
2024/03/20 06:23:23;;;;;;;1.50;1.10;;;10.30;98.20;;;;;;4881862;29;20569;-81
2024/03/20 06:25:49;;;;;;;1.50;1.20;;;10.30;98.20;;;;;;4878793;29;20462;-80
2024/03/20 06:28:16;;;;;;;1.50;1.10;;;10.40;98.20;;;;;;4879893;29;21011;-79
2024/03/20 06:30:42;;;;;;;1.50;1.10;;;10.40;98.20;;;;;;4880190;29;20251;-82
2024/03/20 06:33:09;;;;;;;1.50;1.10;;;10.50;98.20;;;;;;4879551;29;20490;-78
2024/03/20 06:35:35;;;;;;;1.50;1.10;;;10.50;98.20;;;;;;4872877;29;20430;-81
2024/03/20 06:38:03;;;;;;;1.50;1.10;;;10.60;98.20;;;;;;4879957;29;20624;-82
2024/03/20 06:40:32;;;;;;;1.50;1.10;;;10.70;98.20;;;;;;4878733;29;20225;-83
2024/03/20 06:42:59;;;;;;;1.50;1.20;;;10.70;98.20;;;;;;4877111;29;20535;-82
2024/03/20 06:45:31;;;;;;;1.50;1.10;;;10.80;98.20;;;;;;4879659;29;20478;-81
2024/03/20 06:48:01;;;;;;;1.50;1.00;;;10.80;98.20;;;;;;4880482;29;20917;-79
2024/03/20 06:50:28;;;;;;;1.50;1.10;;;10.90;98.20;;;;;;4882027;29;20466;-79
2024/03/20 06:52:57;;;;;;;1.50;1.20;;;11.00;98.20;;;;;;4879364;29;20506;-82
2024/03/20 06:55:23;;;;;;;1.50;1.10;;;11.10;98.20;;;;;;4880043;29;20851;-83
2024/03/20 06:57:51;;;;;;;1.50;1.13;;;11.20;98.20;;;;;;4881862;29;20467;-82
2024/03/20 07:00:18;;;;;;;1.50;1.10;;;11.40;98.20;;;;;;4879897;29;20630;-79
2024/03/20 07:02:45;;;;;;;1.50;1.10;;;11.40;98.20;;;;;;4877818;29;20555;-79
2024/03/20 07:05:14;;;;;;;1.50;1.00;;;11.60;98.20;;;;;;4878409;29;20561;-81
2024/03/20 07:07:41;;;;;;;1.50;1.10;;;11.60;98.20;;;;;;4878077;29;20477;-79
2024/03/20 07:10:08;;;;;;;1.50;1.20;;;11.80;98.20;;;;;;4882986;29;20462;-83
2024/03/20 07:12:35;;;;;;;1.50;1.00;;;11.90;98.20;;;;;;4883706;29;20494;-81
2024/03/20 07:15:06;;;;;;;1.50;1.10;;;12.00;98.20;;;;;;4882800;29;20497;-82
2024/03/20 07:17:33;;;;;;;1.50;1.00;;;12.20;98.20;;;;;;4882232;29;21009;-79
2024/03/20 07:19:59;;;;;;;1.50;1.10;;;12.20;98.20;;;;;;4883078;29;20475;-79
2024/03/20 07:22:26;;;;;;;1.50;1.10;;;12.30;98.20;;;;;;4881642;29;20496;-82
2024/03/20 07:24:57;;;;;;;1.50;1.00;;;12.40;98.20;;;;;;4884564;29;20266;-81
2024/03/20 07:27:23;;;;;;;1.50;1.00;;;12.50;98.20;;;;;;4883207;29;20462;-79
2024/03/20 07:29:49;;;;;;;1.50;1.00;;;12.60;98.20;;;;;;4882344;29;20486;-80
2024/03/20 07:32:17;;;;;;;1.50;1.00;;;12.70;98.20;;;;;;4881998;29;20502;-80
2024/03/20 07:34:44;;;;;;;1.50;0.90;;;12.80;98.20;;;;;;4882381;29;20214;-80
2024/03/20 07:37:11;;;;;;;1.50;1.00;;;12.80;98.20;;;;;;4882047;29;20470;-80
2024/03/20 07:39:38;;;;;;;1.50;1.00;;;12.90;98.20;;;;;;4881893;29;20474;-79
2024/03/20 07:42:04;;;;;;;1.50;0.90;;;13.00;98.20;;;;;;4883398;29;20494;-81
2024/03/20 07:44:31;;;;;;;1.50;1.00;;;13.10;98.20;;;;;;4884029;29;20478;-83
2024/03/20 07:46:58;;;;;;;1.50;1.00;;;13.10;98.20;;;;;;4882207;29;20471;-82
2024/03/20 07:49:26;;;;;;;1.50;1.00;;;13.20;98.20;;;;;;4880470;29;20483;-81
2024/03/20 07:51:54;;;;;;;1.50;1.00;;;13.30;98.20;;;;;;4881096;29;20502;-81
2024/03/20 07:54:23;;;;;;;1.50;1.00;;;13.40;98.20;;;;;;4884358;29;20477;-81
2024/03/20 07:56:50;;;;;;;1.50;1.07;;;13.40;98.20;;;;;;4880072;29;20557;-81
2024/03/20 07:59:17;;;;;;;1.50;1.00;;;13.50;98.20;;;;;;4880770;29;20992;-79
2024/03/20 08:01:42;;;;;;;1.60;1.20;;;13.60;98.20;;;;;;4881222;29;21041;-80
2024/03/20 08:04:09;;;;;;;1.50;1.00;;;13.70;98.20;;;;;;4881657;29;20481;-80
2024/03/20 08:06:36;;;;;;;1.50;1.10;;;13.80;98.20;;;;;;4880250;29;20674;-83
2024/03/20 08:09:05;;;;;;;1.50;1.00;;;13.90;98.20;;;;;;4884429;29;20473;-80
2024/03/20 08:11:31;;;;;;;1.50;1.00;;;14.00;98.20;;;;;;4881216;29;20586;-79
2024/03/20 08:13:58;;;;;;;1.50;0.90;;;14.20;98.20;;;;;;4881574;29;20481;-79
2024/03/20 08:16:25;;;;;;;1.50;0.90;;;14.30;98.20;;;;;;4880214;29;20470;-80
2024/03/20 08:18:52;;;;;;;1.53;1.00;;;14.50;98.20;;;;;;4881208;29;20470;-80
2024/03/20 08:21:18;;;;;;;1.50;0.90;;;14.60;98.20;;;;;;4880911;29;20482;-79
2024/03/20 08:23:46;;;;;;;2.43;2.23;;;14.70;98.20;;;;;;4880961;29;20558;-82
2024/03/20 08:26:12;;;;;;;1.50;1.00;;;14.80;98.20;;;;;;4878562;29;20221;-80
2024/03/20 08:28:39;;;;;;;1.50;1.00;;;14.90;98.20;;;;;;4879922;29;20474;-83
2024/03/20 08:31:05;;;;;;;1.50;0.97;;;15.00;98.20;;;;;;4881032;29;20221;-79
2024/03/20 08:33:32;;;;;;;1.60;1.47;;;15.10;98.20;;;;;;4880201;29;20702;-79
2024/03/20 08:35:58;;;;;;;1.50;0.90;;;15.20;98.20;;;;;;4877083;29;20477;-79
2024/03/20 08:38:25;;;;;;;1.50;1.00;;;15.20;98.20;;;;;;4880558;29;20502;-82
2024/03/20 08:40:52;;;;;;;3.23;2.93;;;15.20;98.20;;;;;;4881135;29;20470;-81
2024/03/20 08:43:22;;;;;;;1.50;1.20;;;15.30;98.20;;;;;;4881104;29;20550;-82
2024/03/20 08:45:48;;;;;;;1.50;0.97;;;15.50;98.20;;;;;;4878759;29;20535;-80
2024/03/20 08:48:15;;;;;;;1.50;0.90;;;15.60;98.20;;;;;;4880363;29;20470;-80
2024/03/20 08:50:43;;;;;;;1.53;1.07;;;15.80;98.20;;;;;;4878171;29;20219;-80
2024/03/20 08:53:11;;;;;;;1.50;0.90;;;15.90;98.20;;;;;;4878570;29;20522;-82
2024/03/20 08:55:36;;;;;;;1.50;1.00;;;16.10;98.20;;;;;;4880989;29;20478;-83
2024/03/20 08:58:05;;;;;;;1.50;0.90;;;16.10;98.20;;;;;;4882000;29;20484;-82
2024/03/20 09:00:32;;;;;;;1.60;1.20;;;16.20;98.20;;;;;;4879133;29;20230;-81
2024/03/20 09:02:59;;;;;;;1.50;1.00;;;16.40;98.20;;;;;;4882985;29;20491;-83
2024/03/20 09:05:25;;;;;;;1.50;0.90;;;16.60;98.20;;;;;;4881700;29;21038;-81
2024/03/20 09:07:52;;;;;;;1.50;1.00;;;16.70;98.20;;;;;;4880784;29;20472;-80
2024/03/20 09:10:18;;;;;;;1.50;0.90;;;16.90;98.20;;;;;;4881166;29;20475;-80
2024/03/20 09:12:45;;;;;;;1.50;0.90;;;17.00;98.20;;;;;;4879116;29;20501;-80
2024/03/20 09:15:12;;;;;;;1.50;0.90;;;17.20;98.20;;;;;;4879718;29;20474;-80
2024/03/20 09:17:40;;;;;;;1.53;0.90;;;17.40;98.20;;;;;;4879067;29;20471;-80
2024/03/20 09:20:15;;;;;;;1.50;0.90;;;17.60;98.20;;;;;;4879634;29;20506;-81
2024/03/20 09:22:42;;;;;;;1.50;0.90;;;17.80;98.20;;;;;;4878254;29;20517;-80
2024/03/20 09:25:08;;;;;;;1.50;0.90;;;18.00;98.20;;;;;;4879845;29;20565;-81
2024/03/20 09:27:35;;;;;;;1.50;0.90;;;18.10;98.20;;;;;;4878548;29;20931;-78
2024/03/20 09:30:02;;;;;;;1.50;0.90;;;18.20;98.20;;;;;;4879516;29;20218;-81
2024/03/20 09:32:30;;;;;;;1.50;0.90;;;18.30;98.20;;;;;;4880097;29;20498;-81
2024/03/20 09:34:58;;;;;;;1.50;0.90;;;18.30;98.20;;;;;;4879452;29;20957;-81
2024/03/20 09:37:26;;;;;;;1.50;0.90;;;18.40;98.20;;;;;;4879812;29;20534;-81
2024/03/20 09:39:51;;;;;;;1.50;0.90;;;18.50;98.20;;;;;;4882120;29;20561;-81
2024/03/20 09:42:18;;;;;;;1.50;0.90;;;18.60;98.20;;;;;;4880953;29;20521;-81
2024/03/20 09:44:44;;;;;;;1.50;0.90;;;18.70;98.20;;;;;;4880983;29;20210;-81
2024/03/20 09:47:12;;;;;;;1.50;0.90;;;18.90;98.20;;;;;;4877888;29;20557;-82
2024/03/20 09:49:39;;;;;;;1.50;0.90;;;19.00;98.20;;;;;;4877369;29;20214;-81
2024/03/20 09:52:09;;;;;;;1.50;0.90;;;19.20;97.40;;;;;;4879234;29;20527;-82
2024/03/20 09:54:35;;;;;;;1.50;0.90;;;19.30;97.50;;;;;;4879504;29;20542;-79
2024/03/20 09:57:02;;;;;;;1.50;0.90;;;19.40;97.20;;;;;;4879451;29;20494;-79
2024/03/20 09:59:29;;;;;;;1.50;0.90;;;19.50;96.40;;;;;;4878491;29;20747;-80
2024/03/20 10:01:55;;;;;;;1.50;1.07;;;19.50;95.60;;;;;;4878249;29;20514;-80
2024/03/20 10:04:26;;;;;;;1.50;0.90;;;19.60;95.60;;;;;;4879791;29;21184;-81
2024/03/20 10:06:55;;;;;;;1.50;0.90;;;19.60;96.00;;;;;;4877660;29;20513;-81
2024/03/20 10:09:26;;;;;;;1.60;1.10;;;19.70;96.70;;;;;;4880196;29;20495;-81
2024/03/20 10:11:53;;;;;;;1.50;0.90;;;19.80;95.10;;;;;;4878663;29;20554;-81
2024/03/20 10:14:22;;;;;;;1.50;0.90;;;19.80;94.80;;;;;;4911538;23;20860;-83
2024/03/20 10:16:49;;;;;;;1.50;0.90;;;19.90;96.10;;;;;;4891010;29;20556;-84
2024/03/20 10:19:15;;;;;;;1.50;0.90;;;20.10;95.70;;;;;;4895539;29;20457;-84
2024/03/20 10:21:44;;;;;;;1.50;0.90;;;20.20;94.80;;;;;;4894548;29;20549;-84
2024/03/20 10:24:16;;;;;;;1.50;0.90;;;20.40;95.20;;;;;;4899949;29;20225;-83
2024/03/20 10:26:43;;;;;;;1.50;0.87;;;20.60;94.70;;;;;;4898687;29;20469;-84
2024/03/20 10:29:13;;;;;;;1.50;0.90;;;20.90;93.90;;;;;;4900614;29;20488;-85
2024/03/20 10:31:43;;;;;;;1.50;0.90;;;21.10;91.70;;;;;;4895807;29;20501;-82
2024/03/20 10:34:14;;;;;;;1.47;0.90;;;21.30;92.70;;;;;;4899326;29;20505;-85
2024/03/20 10:36:46;;;;;;;1.50;0.90;;;21.40;92.40;;;;;;4896740;29;20472;-83
2024/03/20 10:39:17;;;;;;;1.50;0.87;;;21.60;90.80;;;;;;4902048;29;20695;-84
2024/03/20 10:41:46;;;;;;;1.50;0.87;;;21.80;89.70;;;;;;4897627;29;20749;-84
2024/03/20 10:44:15;;;;;;;1.50;0.90;;;22.00;90.10;;;;;;4898831;29;20501;-85
2024/03/20 10:46:46;;;;;;;1.50;0.90;;;22.10;90.20;;;;;;4894276;29;20552;-83
2024/03/20 10:49:17;;;;;;;1.47;0.90;;;22.10;89.70;;;;;;4898589;29;20462;-85
2024/03/20 10:51:45;;;;;;;1.50;0.90;;;22.20;90.70;;;;;;4896028;29;20557;-85
2024/03/20 10:54:11;;;;;;;1.50;0.80;;;22.30;88.40;;;;;;4899349;29;20494;-86
2024/03/20 10:56:48;;;;;;;1.50;0.90;;;22.30;90.20;;;;;;4896595;29;20492;-83
2024/03/20 10:59:16;;;;;;;1.50;0.90;;;22.30;89.20;;;;;;4898476;29;21008;-84
2024/03/20 11:02:03;;;;;;;1.50;0.90;;;22.30;89.10;;;;;;4899747;29;20832;-83
2024/03/20 11:04:34;;;;;;;1.50;0.90;;;22.30;90.30;;;;;;4900919;29;20488;-85
2024/03/20 11:07:01;;;;;;;1.50;1.00;;;22.50;90.90;;;;;;4897032;29;20493;-84
2024/03/20 11:09:30;;;;;;;1.47;0.87;;;22.50;88.80;;;;;;4897945;29;20549;-85
2024/03/20 11:14:45;;;;;;;1.50;0.90;;;22.40;87.40;;;;;;4902671;23;20497;-83
2024/03/20 11:17:11;;;;;;;1.47;0.80;;;22.20;86.90;;;;;;4894284;29;20861;-85
2024/03/20 11:22:44;;;;;;;1.50;0.90;;;22.20;87.50;;;;;;4888228;29;20494;-83
2024/03/20 11:25:10;;;;;;;1.50;0.90;;;22.20;88.70;;;;;;4894799;29;20474;-83
2024/03/20 11:27:39;;;;;;;1.50;0.90;;;22.20;89.30;;;;;;4895173;29;20577;-83
2024/03/20 11:30:06;;;;;;;1.50;0.80;;;22.40;89.90;;;;;;4901336;29;20911;-85
2024/03/20 11:32:33;;;;;;;1.50;0.90;;;22.50;88.10;;;;;;4898886;29;21045;-85
2024/03/20 11:38:29;;;;;;;1.43;0.83;;;22.60;87.70;;;;;;4897922;29;21031;-84
2024/03/20 11:40:57;;;;;;;1.47;0.80;;;22.80;87.40;;;;;;4897361;29;20898;-85
2024/03/20 11:43:26;;;;;;;1.50;0.90;;;22.80;87.80;;;;;;4894994;29;20493;-85
2024/03/20 11:45:51;;;;;;;1.47;0.87;;;23.10;87.90;;;;;;4896952;29;20618;-84
2024/03/20 11:48:19;;;;;;;1.50;0.90;;;23.20;84.60;;;;;;4903456;29;20489;-83
2024/03/20 11:50:45;;;;;;;1.50;0.80;;;23.40;85.30;;;;;;4900083;29;20274;-84
2024/03/20 11:53:15;;;;;;;1.43;0.90;;;23.50;85.50;;;;;;4897242;29;20490;-85
2024/03/20 11:55:41;;;;;;;1.43;0.90;;;23.60;85.40;;;;;;4902422;29;20493;-84
2024/03/20 11:58:12;;;;;;;1.43;0.90;;;23.50;82.10;;;;;;4900109;29;20521;-84
2024/03/20 12:00:40;;;;;;;1.50;0.90;;;23.50;83.50;;;;;;4904411;29;20492;-84
2024/03/20 12:03:21;;;;;;;1.50;0.90;;;23.60;82.50;;;;;;4895269;29;20485;-84
2024/03/20 12:05:47;;;;;;;1.50;0.80;;;23.50;82.60;;;;;;4895107;29;20483;-86
2024/03/20 12:08:17;;;;;;;1.50;0.90;;;23.60;83.20;;;;;;4896621;29;20850;-84
2024/03/20 12:10:43;;;;;;;1.50;0.90;;;23.40;82.50;;;;;;4891124;29;20246;-85
2024/03/20 12:13:11;;;;;;;1.47;0.90;;;23.20;82.80;;;;;;4894128;29;20494;-84
2024/03/20 12:15:47;;;;;;;1.47;0.80;;;23.10;83.40;;;;;;4897360;29;20218;-84
2024/03/20 12:18:14;;;;;;;1.43;0.80;;;23.00;83.20;;;;;;4897700;29;20481;-84
2024/03/20 12:20:43;;;;;;;1.50;1.00;;;23.00;83.70;;;;;;4894319;29;20465;-86
2024/03/20 12:23:10;;;;;;;1.50;0.90;;;23.00;82.60;;;;;;4907621;29;20964;-85
2024/03/20 12:25:36;;;;;;;1.70;1.50;;;22.90;83.10;;;;;;4896620;29;20564;-85
2024/03/20 12:28:03;;;;;;;1.43;0.80;;;22.90;83.90;;;;;;4898194;29;20469;-85
2024/03/20 12:30:29;;;;;;;1.50;1.10;;;23.00;84.00;;;;;;4899229;29;20469;-85
2024/03/20 12:33:01;;;;;;;1.40;0.80;;;23.10;83.50;;;;;;4899438;29;20897;-84
2024/03/20 12:35:27;;;;;;;1.43;0.90;;;23.00;82.10;;;;;;4900255;29;20241;-85
2024/03/20 12:37:53;;;;;;;1.50;0.87;;;23.10;84.80;;;;;;4898970;29;20466;-84
2024/03/20 12:40:19;;;;;;;1.43;0.80;;;23.10;83.00;;;;;;4900552;29;20207;-84
2024/03/20 12:42:46;;;;;;;1.50;0.90;;;23.20;84.10;;;;;;4896790;29;20488;-84
2024/03/20 12:45:12;;;;;;;1.50;0.90;;;23.20;82.60;;;;;;4900389;29;20240;-85
2024/03/20 12:47:40;;;;;;;1.40;0.90;;;23.10;81.90;;;;;;4899748;29;20469;-85
2024/03/20 12:50:11;;;;;;;1.47;0.80;;;23.10;82.00;;;;;;4900753;29;20236;-86
2024/03/20 12:52:45;;;;;;;1.50;0.80;;;23.00;82.60;;;;;;4897190;29;20769;-84
2024/03/20 12:55:11;;;;;;;1.50;0.90;;;22.90;83.40;;;;;;4899568;29;20541;-84
2024/03/20 12:57:38;;;;;;;1.50;0.90;;;22.80;83.20;;;;;;4899920;29;20512;-87
2024/03/20 13:00:10;;;;;;;1.40;0.80;;;22.90;84.30;;;;;;4901321;29;20466;-88
2024/03/20 13:02:37;;;;;;;1.47;0.80;;;23.00;82.40;;;;;;4902804;29;20490;-86